sensor_id;sensor_type;location;lat;lon;timestamp;P1;durP1;ratioP1;P2;durP2;ratioP2
16522;SDS011;19889;52.546;13.348;2023-03-01T00:00:39;22.07;;;11.97;;
16522;SDS011;19889;52.546;13.348;2023-03-01T00:03:11;17.83;;;10.23;;
16522;SDS011;19889;52.546;13.348;2023-03-01T00:05:43;14.83;;;10.50;;
16522;SDS011;19889;52.546;13.348;2023-03-01T00:08:10;18.80;;;10.97;;
16522;SDS011;19889;52.546;13.348;2023-03-01T00:10:38;20.03;;;12.60;;
16522;SDS011;19889;52.546;13.348;2023-03-01T00:13:05;20.60;;;10.43;;
16522;SDS011;19889;52.546;13.348;2023-03-01T00:15:32;19.27;;;10.97;;
16522;SDS011;19889;52.546;13.348;2023-03-01T00:18:00;14.30;;;11.30;;
16522;SDS011;19889;52.546;13.348;2023-03-01T00:20:27;19.37;;;11.43;;
16522;SDS011;19889;52.546;13.348;2023-03-01T00:22:54;19.20;;;11.57;;
16522;SDS011;19889;52.546;13.348;2023-03-01T00:25:21;18.87;;;11.10;;
16522;SDS011;19889;52.546;13.348;2023-03-01T00:27:49;21.23;;;12.87;;
16522;SDS011;19889;52.546;13.348;2023-03-01T00:30:16;19.37;;;12.00;;
16522;SDS011;19889;52.546;13.348;2023-03-01T00:32:43;19.50;;;12.40;;
16522;SDS011;19889;52.546;13.348;2023-03-01T00:35:10;15.87;;;11.50;;
16522;SDS011;19889;52.546;13.348;2023-03-01T00:37:37;16.17;;;10.77;;
16522;SDS011;19889;52.546;13.348;2023-03-01T00:40:06;21.13;;;11.70;;
16522;SDS011;19889;52.546;13.348;2023-03-01T00:42:35;19.87;;;11.47;;
16522;SDS011;19889;52.546;13.348;2023-03-01T00:45:05;19.13;;;11.67;;
16522;SDS011;19889;52.546;13.348;2023-03-01T00:47:33;13.67;;;10.53;;
16522;SDS011;19889;52.546;13.348;2023-03-01T00:50:00;18.00;;;11.80;;
16522;SDS011;19889;52.546;13.348;2023-03-01T00:52:27;19.43;;;12.10;;
16522;SDS011;19889;52.546;13.348;2023-03-01T00:54:54;21.23;;;12.30;;
16522;SDS011;19889;52.546;13.348;2023-03-01T00:57:23;22.77;;;13.40;;
16522;SDS011;19889;52.546;13.348;2023-03-01T00:59:49;20.93;;;13.73;;
16522;SDS011;19889;52.546;13.348;2023-03-01T01:02:18;21.23;;;12.97;;
16522;SDS011;19889;52.546;13.348;2023-03-01T01:04:46;20.87;;;13.07;;
16522;SDS011;19889;52.546;13.348;2023-03-01T01:07:13;23.47;;;12.87;;
16522;SDS011;19889;52.546;13.348;2023-03-01T01:09:40;17.80;;;12.10;;
16522;SDS011;19889;52.546;13.348;2023-03-01T01:12:08;18.63;;;12.87;;
16522;SDS011;19889;52.546;13.348;2023-03-01T01:14:35;19.67;;;13.20;;
16522;SDS011;19889;52.546;13.348;2023-03-01T01:17:02;19.20;;;12.17;;
16522;SDS011;19889;52.546;13.348;2023-03-01T01:19:31;18.50;;;12.10;;
16522;SDS011;19889;52.546;13.348;2023-03-01T01:21:58;21.23;;;12.67;;
16522;SDS011;19889;52.546;13.348;2023-03-01T01:24:25;21.63;;;13.30;;
16522;SDS011;19889;52.546;13.348;2023-03-01T01:26:52;20.43;;;12.23;;
16522;SDS011;19889;52.546;13.348;2023-03-01T01:29:19;17.33;;;11.43;;
16522;SDS011;19889;52.546;13.348;2023-03-01T01:31:46;23.70;;;13.70;;
16522;SDS011;19889;52.546;13.348;2023-03-01T01:34:13;19.50;;;11.63;;
16522;SDS011;19889;52.546;13.348;2023-03-01T01:36:43;20.50;;;11.63;;
16522;SDS011;19889;52.546;13.348;2023-03-01T01:39:13;18.63;;;11.43;;
16522;SDS011;19889;52.546;13.348;2023-03-01T01:41:40;19.30;;;11.47;;
16522;SDS011;19889;52.546;13.348;2023-03-01T01:44:10;20.27;;;11.83;;
16522;SDS011;19889;52.546;13.348;2023-03-01T01:46:46;16.43;;;11.83;;
16522;SDS011;19889;52.546;13.348;2023-03-01T01:49:18;19.43;;;12.30;;
16522;SDS011;19889;52.546;13.348;2023-03-01T01:51:51;21.57;;;11.67;;
16522;SDS011;19889;52.546;13.348;2023-03-01T01:54:24;16.37;;;11.97;;
16522;SDS011;19889;52.546;13.348;2023-03-01T01:56:55;21.17;;;12.07;;
16522;SDS011;19889;52.546;13.348;2023-03-01T01:59:24;16.63;;;11.43;;
16522;SDS011;19889;52.546;13.348;2023-03-01T02:01:53;18.70;;;11.53;;
16522;SDS011;19889;52.546;13.348;2023-03-01T02:04:21;16.17;;;11.07;;
16522;SDS011;19889;52.546;13.348;2023-03-01T02:06:49;17.57;;;11.73;;
16522;SDS011;19889;52.546;13.348;2023-03-01T02:09:23;21.53;;;11.97;;
16522;SDS011;19889;52.546;13.348;2023-03-01T02:11:51;15.63;;;10.73;;
16522;SDS011;19889;52.546;13.348;2023-03-01T02:14:19;20.90;;;11.73;;
16522;SDS011;19889;52.546;13.348;2023-03-01T02:16:46;17.27;;;11.57;;
16522;SDS011;19889;52.546;13.348;2023-03-01T02:19:16;20.10;;;11.97;;
16522;SDS011;19889;52.546;13.348;2023-03-01T02:21:54;17.90;;;11.47;;
16522;SDS011;19889;52.546;13.348;2023-03-01T02:24:29;17.53;;;11.50;;
16522;SDS011;19889;52.546;13.348;2023-03-01T02:27:05;18.50;;;11.60;;
16522;SDS011;19889;52.546;13.348;2023-03-01T02:29:34;15.93;;;11.23;;
16522;SDS011;19889;52.546;13.348;2023-03-01T02:32:02;21.37;;;11.57;;
16522;SDS011;19889;52.546;13.348;2023-03-01T02:34:29;20.07;;;12.70;;
16522;SDS011;19889;52.546;13.348;2023-03-01T02:37:00;15.17;;;10.97;;
16522;SDS011;19889;52.546;13.348;2023-03-01T02:39:30;20.37;;;11.20;;
16522;SDS011;19889;52.546;13.348;2023-03-01T02:42:02;14.80;;;10.80;;
16522;SDS011;19889;52.546;13.348;2023-03-01T02:44:30;19.57;;;10.80;;
16522;SDS011;19889;52.546;13.348;2023-03-01T02:47:00;18.47;;;11.17;;
16522;SDS011;19889;52.546;13.348;2023-03-01T02:49:29;22.40;;;11.50;;
16522;SDS011;19889;52.546;13.348;2023-03-01T02:52:16;16.73;;;10.93;;
16522;SDS011;19889;52.546;13.348;2023-03-01T02:54:50;18.33;;;11.03;;
16522;SDS011;19889;52.546;13.348;2023-03-01T02:57:23;19.27;;;11.40;;
16522;SDS011;19889;52.546;13.348;2023-03-01T02:59:52;20.27;;;11.90;;
16522;SDS011;19889;52.546;13.348;2023-03-01T03:02:23;19.53;;;11.53;;
16522;SDS011;19889;52.546;13.348;2023-03-01T03:05:07;15.53;;;10.57;;
16522;SDS011;19889;52.546;13.348;2023-03-01T03:07:36;16.33;;;11.07;;
16522;SDS011;19889;52.546;13.348;2023-03-01T03:10:08;18.50;;;11.53;;
16522;SDS011;19889;52.546;13.348;2023-03-01T03:12:36;15.83;;;10.93;;
16522;SDS011;19889;52.546;13.348;2023-03-01T03:15:04;18.20;;;10.60;;
16522;SDS011;19889;52.546;13.348;2023-03-01T03:17:36;20.57;;;12.47;;
16522;SDS011;19889;52.546;13.348;2023-03-01T03:20:03;18.73;;;10.90;;
16522;SDS011;19889;52.546;13.348;2023-03-01T03:22:36;18.17;;;11.10;;
16522;SDS011;19889;52.546;13.348;2023-03-01T03:25:04;20.40;;;11.47;;
16522;SDS011;19889;52.546;13.348;2023-03-01T03:27:35;19.10;;;10.70;;
16522;SDS011;19889;52.546;13.348;2023-03-01T03:30:03;21.30;;;12.47;;
16522;SDS011;19889;52.546;13.348;2023-03-01T03:32:35;18.40;;;11.90;;
16522;SDS011;19889;52.546;13.348;2023-03-01T03:35:02;23.77;;;11.80;;
16522;SDS011;19889;52.546;13.348;2023-03-01T03:37:34;21.20;;;11.80;;
16522;SDS011;19889;52.546;13.348;2023-03-01T03:40:19;18.90;;;11.57;;
16522;SDS011;19889;52.546;13.348;2023-03-01T03:42:46;19.03;;;11.20;;
16522;SDS011;19889;52.546;13.348;2023-03-01T03:45:13;20.03;;;11.47;;
16522;SDS011;19889;52.546;13.348;2023-03-01T03:47:42;17.27;;;11.43;;
16522;SDS011;19889;52.546;13.348;2023-03-01T03:50:10;19.30;;;11.00;;
16522;SDS011;19889;52.546;13.348;2023-03-01T03:52:38;20.77;;;10.93;;
16522;SDS011;19889;52.546;13.348;2023-03-01T03:55:05;23.90;;;11.47;;
16522;SDS011;19889;52.546;13.348;2023-03-01T03:57:35;16.07;;;10.10;;
16522;SDS011;19889;52.546;13.348;2023-03-01T04:00:04;20.50;;;11.53;;
16522;SDS011;19889;52.546;13.348;2023-03-01T04:02:38;14.87;;;9.93;;
16522;SDS011;19889;52.546;13.348;2023-03-01T04:05:08;18.03;;;11.73;;
16522;SDS011;19889;52.546;13.348;2023-03-01T04:07:36;19.13;;;11.30;;
16522;SDS011;19889;52.546;13.348;2023-03-01T04:10:03;18.37;;;10.77;;
16522;SDS011;19889;52.546;13.348;2023-03-01T04:12:32;18.13;;;11.73;;
16522;SDS011;19889;52.546;13.348;2023-03-01T04:14:59;16.93;;;10.80;;
16522;SDS011;19889;52.546;13.348;2023-03-01T04:17:28;15.37;;;9.83;;
16522;SDS011;19889;52.546;13.348;2023-03-01T04:19:55;17.73;;;11.03;;
16522;SDS011;19889;52.546;13.348;2023-03-01T04:22:23;18.47;;;11.77;;
16522;SDS011;19889;52.546;13.348;2023-03-01T04:24:54;18.00;;;11.77;;
16522;SDS011;19889;52.546;13.348;2023-03-01T04:27:21;14.87;;;10.47;;
16522;SDS011;19889;52.546;13.348;2023-03-01T04:29:48;17.90;;;9.80;;
16522;SDS011;19889;52.546;13.348;2023-03-01T04:32:15;16.60;;;11.60;;
16522;SDS011;19889;52.546;13.348;2023-03-01T04:34:43;17.80;;;10.60;;
16522;SDS011;19889;52.546;13.348;2023-03-01T04:37:10;17.87;;;11.27;;
16522;SDS011;19889;52.546;13.348;2023-03-01T04:39:39;17.87;;;11.63;;
16522;SDS011;19889;52.546;13.348;2023-03-01T04:42:10;21.67;;;10.67;;
16522;SDS011;19889;52.546;13.348;2023-03-01T04:44:37;17.77;;;11.40;;
16522;SDS011;19889;52.546;13.348;2023-03-01T04:47:04;18.27;;;11.17;;
16522;SDS011;19889;52.546;13.348;2023-03-01T04:49:31;17.23;;;11.53;;
16522;SDS011;19889;52.546;13.348;2023-03-01T04:51:58;17.90;;;11.03;;
16522;SDS011;19889;52.546;13.348;2023-03-01T04:54:27;17.07;;;11.17;;
16522;SDS011;19889;52.546;13.348;2023-03-01T04:56:55;18.00;;;11.13;;
16522;SDS011;19889;52.546;13.348;2023-03-01T04:59:22;22.17;;;11.77;;
16522;SDS011;19889;52.546;13.348;2023-03-01T05:01:49;18.00;;;11.63;;
16522;SDS011;19889;52.546;13.348;2023-03-01T05:04:16;15.77;;;10.40;;
16522;SDS011;19889;52.546;13.348;2023-03-01T05:06:43;15.73;;;10.63;;
16522;SDS011;19889;52.546;13.348;2023-03-01T05:09:10;21.10;;;11.23;;
16522;SDS011;19889;52.546;13.348;2023-03-01T05:11:37;18.83;;;10.43;;
16522;SDS011;19889;52.546;13.348;2023-03-01T05:14:06;20.97;;;11.30;;
16522;SDS011;19889;52.546;13.348;2023-03-01T05:16:34;17.17;;;11.20;;
16522;SDS011;19889;52.546;13.348;2023-03-01T05:19:02;19.00;;;11.40;;
16522;SDS011;19889;52.546;13.348;2023-03-01T05:21:36;16.93;;;11.23;;
16522;SDS011;19889;52.546;13.348;2023-03-01T05:24:23;20.03;;;11.53;;
16522;SDS011;19889;52.546;13.348;2023-03-01T05:26:51;17.00;;;12.07;;
16522;SDS011;19889;52.546;13.348;2023-03-01T05:29:19;18.73;;;11.73;;
16522;SDS011;19889;52.546;13.348;2023-03-01T05:31:50;17.67;;;10.90;;
16522;SDS011;19889;52.546;13.348;2023-03-01T05:34:18;19.40;;;12.33;;
16522;SDS011;19889;52.546;13.348;2023-03-01T05:36:48;19.60;;;12.47;;
16522;SDS011;19889;52.546;13.348;2023-03-01T05:39:18;19.17;;;12.40;;
16522;SDS011;19889;52.546;13.348;2023-03-01T05:41:47;19.23;;;12.07;;
16522;SDS011;19889;52.546;13.348;2023-03-01T05:44:14;17.73;;;11.37;;
16522;SDS011;19889;52.546;13.348;2023-03-01T05:46:42;20.60;;;13.23;;
16522;SDS011;19889;52.546;13.348;2023-03-01T05:49:10;14.97;;;11.37;;
16522;SDS011;19889;52.546;13.348;2023-03-01T05:51:38;18.47;;;11.90;;
16522;SDS011;19889;52.546;13.348;2023-03-01T05:54:06;20.53;;;12.23;;
16522;SDS011;19889;52.546;13.348;2023-03-01T05:56:33;17.23;;;11.03;;
16522;SDS011;19889;52.546;13.348;2023-03-01T05:59:00;18.47;;;11.10;;
16522;SDS011;19889;52.546;13.348;2023-03-01T06:01:28;19.50;;;11.53;;
16522;SDS011;19889;52.546;13.348;2023-03-01T06:03:56;23.53;;;11.87;;
16522;SDS011;19889;52.546;13.348;2023-03-01T06:06:24;16.87;;;11.20;;
16522;SDS011;19889;52.546;13.348;2023-03-01T06:08:51;18.00;;;11.93;;
16522;SDS011;19889;52.546;13.348;2023-03-01T06:11:19;18.93;;;12.00;;
16522;SDS011;19889;52.546;13.348;2023-03-01T06:13:46;22.90;;;12.27;;
16522;SDS011;19889;52.546;13.348;2023-03-01T06:16:13;18.53;;;11.33;;
16522;SDS011;19889;52.546;13.348;2023-03-01T06:18:40;17.13;;;10.57;;
16522;SDS011;19889;52.546;13.348;2023-03-01T06:21:09;23.63;;;11.73;;
16522;SDS011;19889;52.546;13.348;2023-03-01T06:23:36;19.90;;;11.10;;
16522;SDS011;19889;52.546;13.348;2023-03-01T06:26:05;14.47;;;10.93;;
16522;SDS011;19889;52.546;13.348;2023-03-01T06:28:32;18.07;;;11.47;;
16522;SDS011;19889;52.546;13.348;2023-03-01T06:30:59;21.00;;;10.93;;
16522;SDS011;19889;52.546;13.348;2023-03-01T06:33:26;17.60;;;11.10;;
16522;SDS011;19889;52.546;13.348;2023-03-01T06:35:54;17.03;;;11.70;;
16522;SDS011;19889;52.546;13.348;2023-03-01T06:38:22;17.53;;;11.30;;
16522;SDS011;19889;52.546;13.348;2023-03-01T06:40:52;15.80;;;10.33;;
16522;SDS011;19889;52.546;13.348;2023-03-01T06:43:21;16.03;;;10.80;;
16522;SDS011;19889;52.546;13.348;2023-03-01T06:45:49;17.13;;;10.73;;
16522;SDS011;19889;52.546;13.348;2023-03-01T06:48:16;14.47;;;10.47;;
16522;SDS011;19889;52.546;13.348;2023-03-01T06:50:43;12.63;;;9.53;;
16522;SDS011;19889;52.546;13.348;2023-03-01T06:53:10;15.57;;;11.53;;
16522;SDS011;19889;52.546;13.348;2023-03-01T06:55:39;21.63;;;12.10;;
16522;SDS011;19889;52.546;13.348;2023-03-01T06:58:05;18.20;;;11.47;;
16522;SDS011;19889;52.546;13.348;2023-03-01T07:00:32;16.17;;;11.17;;
16522;SDS011;19889;52.546;13.348;2023-03-01T07:03:00;14.43;;;10.60;;
16522;SDS011;19889;52.546;13.348;2023-03-01T07:05:28;15.60;;;10.20;;
16522;SDS011;19889;52.546;13.348;2023-03-01T07:07:55;16.50;;;11.00;;
16522;SDS011;19889;52.546;13.348;2023-03-01T07:10:22;14.63;;;10.80;;
16522;SDS011;19889;52.546;13.348;2023-03-01T07:12:51;17.40;;;11.03;;
16522;SDS011;19889;52.546;13.348;2023-03-01T07:15:21;19.17;;;12.27;;
16522;SDS011;19889;52.546;13.348;2023-03-01T07:17:48;20.17;;;12.03;;
16522;SDS011;19889;52.546;13.348;2023-03-01T07:20:16;19.77;;;10.57;;
16522;SDS011;19889;52.546;13.348;2023-03-01T07:22:43;19.20;;;11.37;;
16522;SDS011;19889;52.546;13.348;2023-03-01T07:25:10;14.00;;;10.17;;
16522;SDS011;19889;52.546;13.348;2023-03-01T07:27:37;19.87;;;11.17;;
16522;SDS011;19889;52.546;13.348;2023-03-01T07:30:06;19.23;;;11.77;;
16522;SDS011;19889;52.546;13.348;2023-03-01T07:32:34;17.17;;;11.33;;
16522;SDS011;19889;52.546;13.348;2023-03-01T07:35:01;19.13;;;11.63;;
16522;SDS011;19889;52.546;13.348;2023-03-01T07:37:28;18.43;;;11.30;;
16522;SDS011;19889;52.546;13.348;2023-03-01T07:39:54;19.23;;;11.80;;
16522;SDS011;19889;52.546;13.348;2023-03-01T07:42:22;18.77;;;12.47;;
16522;SDS011;19889;52.546;13.348;2023-03-01T07:44:49;17.50;;;11.17;;
16522;SDS011;19889;52.546;13.348;2023-03-01T07:47:18;16.60;;;10.37;;
16522;SDS011;19889;52.546;13.348;2023-03-01T07:49:45;24.87;;;10.17;;
16522;SDS011;19889;52.546;13.348;2023-03-01T07:52:12;16.93;;;10.53;;
16522;SDS011;19889;52.546;13.348;2023-03-01T07:54:39;16.83;;;10.90;;
16522;SDS011;19889;52.546;13.348;2023-03-01T07:57:09;18.43;;;9.80;;
16522;SDS011;19889;52.546;13.348;2023-03-01T07:59:36;14.43;;;8.47;;
16522;SDS011;19889;52.546;13.348;2023-03-01T08:02:03;13.17;;;8.90;;
16522;SDS011;19889;52.546;13.348;2023-03-01T08:04:31;11.67;;;8.07;;
16522;SDS011;19889;52.546;13.348;2023-03-01T08:06:58;16.37;;;9.50;;
16522;SDS011;19889;52.546;13.348;2023-03-01T08:09:26;13.17;;;9.03;;
16522;SDS011;19889;52.546;13.348;2023-03-01T08:11:52;15.50;;;9.10;;
16522;SDS011;19889;52.546;13.348;2023-03-01T08:14:20;15.60;;;8.50;;
16522;SDS011;19889;52.546;13.348;2023-03-01T08:16:48;12.67;;;8.73;;
16522;SDS011;19889;52.546;13.348;2023-03-01T08:19:16;14.37;;;8.80;;
16522;SDS011;19889;52.546;13.348;2023-03-01T08:21:44;13.17;;;9.43;;
16522;SDS011;19889;52.546;13.348;2023-03-01T08:24:11;14.43;;;8.17;;
16522;SDS011;19889;52.546;13.348;2023-03-01T08:26:38;18.00;;;10.33;;
16522;SDS011;19889;52.546;13.348;2023-03-01T08:29:05;13.23;;;8.53;;
16522;SDS011;19889;52.546;13.348;2023-03-01T08:31:33;14.53;;;8.53;;
16522;SDS011;19889;52.546;13.348;2023-03-01T08:34:04;10.03;;;7.47;;
16522;SDS011;19889;52.546;13.348;2023-03-01T08:36:33;16.87;;;9.13;;
16522;SDS011;19889;52.546;13.348;2023-03-01T08:39:04;14.67;;;7.33;;
16522;SDS011;19889;52.546;13.348;2023-03-01T08:41:31;15.00;;;8.40;;
16522;SDS011;19889;52.546;13.348;2023-03-01T08:43:59;9.33;;;6.33;;
16522;SDS011;19889;52.546;13.348;2023-03-01T08:46:26;10.00;;;6.63;;
16522;SDS011;19889;52.546;13.348;2023-03-01T08:48:53;9.50;;;6.70;;
16522;SDS011;19889;52.546;13.348;2023-03-01T08:51:20;12.20;;;6.80;;
16522;SDS011;19889;52.546;13.348;2023-03-01T08:53:48;9.23;;;6.17;;
16522;SDS011;19889;52.546;13.348;2023-03-01T08:56:17;8.80;;;5.77;;
16522;SDS011;19889;52.546;13.348;2023-03-01T08:58:45;9.33;;;5.40;;
16522;SDS011;19889;52.546;13.348;2023-03-01T09:01:14;8.07;;;6.03;;
16522;SDS011;19889;52.546;13.348;2023-03-01T09:03:42;8.77;;;4.87;;
16522;SDS011;19889;52.546;13.348;2023-03-01T09:06:09;5.90;;;5.03;;
16522;SDS011;19889;52.546;13.348;2023-03-01T09:08:37;8.03;;;5.57;;
16522;SDS011;19889;52.546;13.348;2023-03-01T09:11:06;10.93;;;5.70;;
16522;SDS011;19889;52.546;13.348;2023-03-01T09:13:36;7.80;;;4.90;;
16522;SDS011;19889;52.546;13.348;2023-03-01T09:16:04;6.90;;;5.17;;
16522;SDS011;19889;52.546;13.348;2023-03-01T09:18:34;8.53;;;5.40;;
16522;SDS011;19889;52.546;13.348;2023-03-01T09:21:02;9.67;;;4.77;;
16522;SDS011;19889;52.546;13.348;2023-03-01T09:23:32;8.73;;;5.90;;
16522;SDS011;19889;52.546;13.348;2023-03-01T09:26:01;11.13;;;7.30;;
16522;SDS011;19889;52.546;13.348;2023-03-01T09:28:28;11.13;;;6.43;;
16522;SDS011;19889;52.546;13.348;2023-03-01T09:30:59;8.80;;;5.83;;
16522;SDS011;19889;52.546;13.348;2023-03-01T09:33:26;7.77;;;5.30;;
16522;SDS011;19889;52.546;13.348;2023-03-01T09:35:57;10.73;;;6.23;;
16522;SDS011;19889;52.546;13.348;2023-03-01T09:38:24;12.80;;;7.27;;
16522;SDS011;19889;52.546;13.348;2023-03-01T09:40:52;16.83;;;10.03;;
16522;SDS011;19889;52.546;13.348;2023-03-01T09:43:21;11.23;;;6.30;;
16522;SDS011;19889;52.546;13.348;2023-03-01T09:45:55;15.30;;;7.27;;
16522;SDS011;19889;52.546;13.348;2023-03-01T09:48:32;9.53;;;6.13;;
16522;SDS011;19889;52.546;13.348;2023-03-01T09:51:05;10.97;;;4.73;;
16522;SDS011;19889;52.546;13.348;2023-03-01T09:53:35;6.67;;;4.50;;
16522;SDS011;19889;52.546;13.348;2023-03-01T09:56:03;6.50;;;3.83;;
16522;SDS011;19889;52.546;13.348;2023-03-01T09:58:39;6.47;;;3.77;;
16522;SDS011;19889;52.546;13.348;2023-03-01T10:01:26;5.10;;;3.47;;
16522;SDS011;19889;52.546;13.348;2023-03-01T10:04:00;5.07;;;3.53;;
16522;SDS011;19889;52.546;13.348;2023-03-01T10:06:37;6.43;;;3.90;;
16522;SDS011;19889;52.546;13.348;2023-03-01T10:09:06;5.60;;;3.53;;
16522;SDS011;19889;52.546;13.348;2023-03-01T10:11:39;5.13;;;3.77;;
16522;SDS011;19889;52.546;13.348;2023-03-01T10:14:13;6.50;;;3.63;;
16522;SDS011;19889;52.546;13.348;2023-03-01T10:16:52;9.20;;;4.00;;
16522;SDS011;19889;52.546;13.348;2023-03-01T10:19:24;7.47;;;4.13;;
16522;SDS011;19889;52.546;13.348;2023-03-01T10:21:57;6.80;;;3.83;;
16522;SDS011;19889;52.546;13.348;2023-03-01T10:24:28;6.27;;;3.80;;
16522;SDS011;19889;52.546;13.348;2023-03-01T10:27:01;6.37;;;3.70;;
16522;SDS011;19889;52.546;13.348;2023-03-01T10:29:34;6.97;;;3.90;;
16522;SDS011;19889;52.546;13.348;2023-03-01T10:32:08;5.20;;;3.53;;
16522;SDS011;19889;52.546;13.348;2023-03-01T10:34:37;5.10;;;2.90;;
16522;SDS011;19889;52.546;13.348;2023-03-01T10:37:09;6.77;;;4.03;;
16522;SDS011;19889;52.546;13.348;2023-03-01T10:39:37;5.87;;;3.27;;
16522;SDS011;19889;52.546;13.348;2023-03-01T10:42:23;4.70;;;2.93;;
16522;SDS011;19889;52.546;13.348;2023-03-01T10:44:54;5.47;;;3.60;;
16522;SDS011;19889;52.546;13.348;2023-03-01T10:47:22;5.33;;;3.33;;
16522;SDS011;19889;52.546;13.348;2023-03-01T10:49:52;6.23;;;3.20;;
16522;SDS011;19889;52.546;13.348;2023-03-01T10:52:23;4.87;;;2.80;;
16522;SDS011;19889;52.546;13.348;2023-03-01T10:54:52;3.40;;;3.03;;
16522;SDS011;19889;52.546;13.348;2023-03-01T10:57:25;4.07;;;2.60;;
16522;SDS011;19889;52.546;13.348;2023-03-01T11:02:46;6.20;;;2.97;;
16522;SDS011;19889;52.546;13.348;2023-03-01T11:05:17;7.43;;;4.10;;
16522;SDS011;19889;52.546;13.348;2023-03-01T11:07:50;4.50;;;3.00;;
16522;SDS011;19889;52.546;13.348;2023-03-01T11:10:19;3.57;;;2.50;;
16522;SDS011;19889;52.546;13.348;2023-03-01T11:12:48;3.97;;;2.87;;
16522;SDS011;19889;52.546;13.348;2023-03-01T11:15:21;5.13;;;3.53;;
16522;SDS011;19889;52.546;13.348;2023-03-01T11:17:51;6.83;;;2.83;;
16522;SDS011;19889;52.546;13.348;2023-03-01T11:20:24;3.43;;;2.30;;
16522;SDS011;19889;52.546;13.348;2023-03-01T11:22:53;5.77;;;2.37;;
16522;SDS011;19889;52.546;13.348;2023-03-01T11:25:24;2.50;;;2.17;;
16522;SDS011;19889;52.546;13.348;2023-03-01T11:27:54;2.43;;;1.93;;
16522;SDS011;19889;52.546;13.348;2023-03-01T11:30:23;2.80;;;2.00;;
16522;SDS011;19889;52.546;13.348;2023-03-01T11:32:59;3.40;;;2.17;;
16522;SDS011;19889;52.546;13.348;2023-03-01T11:35:35;4.73;;;2.80;;
16522;SDS011;19889;52.546;13.348;2023-03-01T11:38:07;2.67;;;2.23;;
16522;SDS011;19889;52.546;13.348;2023-03-01T11:40:44;2.43;;;2.03;;
16522;SDS011;19889;52.546;13.348;2023-03-01T11:43:15;4.03;;;2.10;;
16522;SDS011;19889;52.546;13.348;2023-03-01T11:49:03;3.60;;;2.20;;
16522;SDS011;19889;52.546;13.348;2023-03-01T11:51:45;2.83;;;2.03;;
16522;SDS011;19889;52.546;13.348;2023-03-01T11:54:22;4.57;;;2.50;;
16522;SDS011;19889;52.546;13.348;2023-03-01T11:57:01;4.47;;;2.77;;
16522;SDS011;19889;52.546;13.348;2023-03-01T12:02:35;2.57;;;2.07;;
16522;SDS011;19889;52.546;13.348;2023-03-01T12:05:22;2.63;;;2.30;;
16522;SDS011;19889;52.546;13.348;2023-03-01T12:07:59;4.00;;;3.20;;
16522;SDS011;19889;52.546;13.348;2023-03-01T12:10:36;5.70;;;2.47;;
16522;SDS011;19889;52.546;13.348;2023-03-01T12:13:18;2.67;;;2.40;;
16522;SDS011;19889;52.546;13.348;2023-03-01T12:16:05;4.40;;;3.00;;
16522;SDS011;19889;52.546;13.348;2023-03-01T12:18:52;5.63;;;2.77;;
16522;SDS011;19889;52.546;13.348;2023-03-01T12:21:34;3.83;;;2.70;;
16522;SDS011;19889;52.546;13.348;2023-03-01T12:24:15;4.43;;;2.40;;
16522;SDS011;19889;52.546;13.348;2023-03-01T12:26:58;6.10;;;3.00;;
16522;SDS011;19889;52.546;13.348;2023-03-01T12:29:38;4.20;;;2.37;;
16522;SDS011;19889;52.546;13.348;2023-03-01T12:38:07;4.73;;;2.30;;
16522;SDS011;19889;52.546;13.348;2023-03-01T12:41:00;2.97;;;2.07;;
16522;SDS011;19889;52.546;13.348;2023-03-01T12:43:47;2.30;;;1.90;;
16522;SDS011;19889;52.546;13.348;2023-03-01T12:46:25;3.70;;;2.43;;
16522;SDS011;19889;52.546;13.348;2023-03-01T12:49:05;3.73;;;2.43;;
16522;SDS011;19889;52.546;13.348;2023-03-01T12:51:36;5.20;;;3.10;;
16522;SDS011;19889;52.546;13.348;2023-03-01T12:54:07;3.40;;;2.10;;
16522;SDS011;19889;52.546;13.348;2023-03-01T12:56:41;6.57;;;2.50;;
16522;SDS011;19889;52.546;13.348;2023-03-01T12:59:17;3.40;;;1.83;;
16522;SDS011;19889;52.546;13.348;2023-03-01T13:01:50;3.27;;;1.70;;
16522;SDS011;19889;52.546;13.348;2023-03-01T13:04:33;4.63;;;2.30;;
16522;SDS011;19889;52.546;13.348;2023-03-01T13:07:11;3.87;;;2.30;;
16522;SDS011;19889;52.546;13.348;2023-03-01T13:09:48;2.83;;;2.23;;
16522;SDS011;19889;52.546;13.348;2023-03-01T13:12:46;5.47;;;2.93;;
16522;SDS011;19889;52.546;13.348;2023-03-01T13:15:30;5.10;;;3.60;;
16522;SDS011;19889;52.546;13.348;2023-03-01T13:17:59;3.73;;;2.53;;
16522;SDS011;19889;52.546;13.348;2023-03-01T13:20:29;3.47;;;2.10;;
16522;SDS011;19889;52.546;13.348;2023-03-01T13:26:02;3.10;;;2.27;;
16522;SDS011;19889;52.546;13.348;2023-03-01T13:28:40;4.33;;;2.33;;
16522;SDS011;19889;52.546;13.348;2023-03-01T13:37:23;4.10;;;2.27;;
16522;SDS011;19889;52.546;13.348;2023-03-01T13:39:54;4.47;;;2.57;;
16522;SDS011;19889;52.546;13.348;2023-03-01T13:42:41;5.00;;;2.57;;
16522;SDS011;19889;52.546;13.348;2023-03-01T13:45:24;2.60;;;1.97;;
16522;SDS011;19889;52.546;13.348;2023-03-01T13:48:01;4.27;;;2.27;;
16522;SDS011;19889;52.546;13.348;2023-03-01T13:50:36;3.37;;;2.23;;
16522;SDS011;19889;52.546;13.348;2023-03-01T13:53:10;5.80;;;2.30;;
16522;SDS011;19889;52.546;13.348;2023-03-01T13:55:43;3.17;;;2.07;;
16522;SDS011;19889;52.546;13.348;2023-03-01T13:58:16;3.27;;;2.00;;
16522;SDS011;19889;52.546;13.348;2023-03-01T14:00:54;3.20;;;1.90;;
16522;SDS011;19889;52.546;13.348;2023-03-01T14:03:22;3.27;;;1.90;;
16522;SDS011;19889;52.546;13.348;2023-03-01T14:06:00;4.67;;;2.30;;
16522;SDS011;19889;52.546;13.348;2023-03-01T14:08:32;6.57;;;3.90;;
16522;SDS011;19889;52.546;13.348;2023-03-01T14:13:58;5.33;;;3.10;;
16522;SDS011;19889;52.546;13.348;2023-03-01T14:16:38;3.80;;;2.50;;
16522;SDS011;19889;52.546;13.348;2023-03-01T14:19:14;4.57;;;2.13;;
16522;SDS011;19889;52.546;13.348;2023-03-01T14:21:44;2.83;;;1.93;;
16522;SDS011;19889;52.546;13.348;2023-03-01T14:24:16;2.40;;;1.60;;
16522;SDS011;19889;52.546;13.348;2023-03-01T14:26:45;2.83;;;1.80;;
16522;SDS011;19889;52.546;13.348;2023-03-01T14:32:09;2.23;;;1.60;;
16522;SDS011;19889;52.546;13.348;2023-03-01T14:34:42;1.63;;;1.53;;
16522;SDS011;19889;52.546;13.348;2023-03-01T14:37:16;1.40;;;1.30;;
16522;SDS011;19889;52.546;13.348;2023-03-01T14:39:47;3.50;;;1.40;;
16522;SDS011;19889;52.546;13.348;2023-03-01T14:42:14;1.60;;;1.43;;
16522;SDS011;19889;52.546;13.348;2023-03-01T14:44:44;3.63;;;1.60;;
16522;SDS011;19889;52.546;13.348;2023-03-01T14:47:14;2.47;;;1.60;;
16522;SDS011;19889;52.546;13.348;2023-03-01T14:49:50;2.00;;;1.60;;
16522;SDS011;19889;52.546;13.348;2023-03-01T14:52:25;3.33;;;1.80;;
16522;SDS011;19889;52.546;13.348;2023-03-01T14:54:59;5.43;;;3.00;;
16522;SDS011;19889;52.546;13.348;2023-03-01T14:57:28;4.07;;;2.80;;
16522;SDS011;19889;52.546;13.348;2023-03-01T14:59:57;7.30;;;4.27;;
16522;SDS011;19889;52.546;13.348;2023-03-01T15:02:29;5.90;;;3.90;;
16522;SDS011;19889;52.546;13.348;2023-03-01T15:04:58;5.90;;;4.03;;
16522;SDS011;19889;52.546;13.348;2023-03-01T15:07:29;4.00;;;2.40;;